Gulfport Biloxi International Airport
KGPT : rendu visible

Aérodrome :











RETROUVEZ-NOUS SUR...

 
LOGIN :

S'inscrire | Disclaimer

   EN    FR    IT 

 









Légende :    VFR   VFR Marginal   IFR   IFR Intensif   IFR Très Intensif
Visi : 
Plafond : 
>= 8 km
>= 3000ft
5 à 8 km
1000 à 3000 ft
1500m à 5 km
500 à 1000 ft
800 à 1500m
200 à 500 ft
< 800m
< 200 ft
Symboles :   Orages  Brouillard  Fortes neiges  Fortes précipitations  Vent > 20 kt






- Altitude de l'aérodrome : 28 ft
- Code IATA : GPT


KGPT - Gulfport Biloxi International

DERNIER METAR :
  • 171153Z AUTO 00000KT 10SM CLR 03/01 A3005 RMK AO2 SLP175 T00280006 10050 20022 55003

METARs EXPIRÉS :
  • 171053Z AUTO 00000KT 10SM CLR 02/01 A3005 RMK AO2 SLP173 T00220006
  • 170953Z AUTO 00000KT 10SM CLR 03/01 A3005 RMK AO2 SLP175 T00280011

TAF KGPT
Valide du 17 à 12h jusqu'au 18 à 12h UTC


171129Z 1712/1812 VRB03KT P6SM SCT150 BKN250
FM172000 VRB03KT P6SM SCT250



MET'MAP, la Météo Aéronautique d'un coup d'oeil ! - Copyright ORBIFLY Décembre 2007 - Disclaimer

ORBIFLY MET'MAP TEAM :

Programmation & Développement : Alexandra Zaïnal
Conception & Développement : Baudouin d'Aumeries
Co-Programmation & Développement : Marc-Olivier Méhu
Soutien technique & logistique : Manuel Goepfert

Contact : metmap@orbifly.com




SOURCES & CREDITS :

   NOAA       Earth
Advisory